createdAt,value
2023-03-23T15:58:49.275Z,99687.59
2023-03-23T16:01:24.029Z,99674.38
2023-03-23T16:03:55.725Z,99657.09
2023-03-23T16:06:26.767Z,99660.72
2023-03-23T16:08:55.152Z,99672.63
2023-03-23T16:11:24.889Z,99680.31
2023-03-23T16:13:54.065Z,99678.31
2023-03-23T16:16:24.329Z,99659.22
2023-03-23T16:18:52.230Z,99656.94
2023-03-23T16:21:20.033Z,99665.91
2023-03-23T16:23:47.800Z,99666.59
2023-03-23T16:26:16.774Z,99675.28
2023-03-23T16:28:44.967Z,99673.81
2023-03-23T16:31:14.192Z,99681.59
2023-03-23T16:33:41.978Z,99680.47
2023-03-23T16:36:12.422Z,99676.22
2023-03-23T16:38:48.971Z,99674.88
2023-03-23T16:41:18.893Z,99648.75
2023-03-23T16:43:46.688Z,99663.75
2023-03-23T16:46:16.150Z,99659.09
2023-03-23T16:48:43.980Z,99659.28
2023-03-23T16:51:11.938Z,99645.75
2023-03-23T16:53:39.665Z,99663.59
2023-03-23T16:56:07.536Z,99673.03
2023-03-23T16:58:35.659Z,99683.84
2023-03-23T17:01:03.473Z,99698.44
2023-03-23T17:03:32.676Z,99687.84
2023-03-23T17:06:01.352Z,99688.19
2023-03-23T17:08:29.772Z,99690.00
2023-03-23T17:10:57.578Z,99690.19
2023-03-23T17:13:27.950Z,99627.50
2023-03-23T17:15:57.228Z,99674.72
2023-03-23T17:18:25.859Z,99711.47
2023-03-23T17:20:55.205Z,99719.78
2023-03-23T17:23:23.017Z,99722.59
2023-03-23T17:25:51.110Z,99724.09
2023-03-23T17:28:20.385Z,99727.28
2023-03-23T17:30:48.779Z,99724.16
2023-03-23T17:33:16.509Z,99731.44
2023-03-23T17:35:47.182Z,99719.84
2023-03-23T17:38:17.802Z,99725.47
2023-03-23T17:40:45.582Z,99728.44
2023-03-23T17:43:13.273Z,99730.47
2023-03-23T17:45:44.399Z,99726.16
2023-03-23T17:48:13.551Z,99710.91
2023-03-23T17:50:41.399Z,99720.03
2023-03-23T17:53:09.145Z,99719.75
2023-03-23T17:55:40.937Z,99690.78
2023-03-23T17:58:08.789Z,99703.66
2023-03-23T18:00:37.157Z,99716.25
2023-03-23T18:03:04.971Z,99716.94
2023-03-23T18:05:32.917Z,99716.94
2023-03-23T18:08:00.808Z,99725.09
2023-03-23T18:10:28.737Z,99723.25
2023-03-23T18:12:57.867Z,99726.25
2023-03-23T18:15:28.108Z,99722.25
2023-03-23T18:17:56.894Z,99718.63
2023-03-23T18:20:24.677Z,99705.69
2023-03-23T18:22:52.370Z,99709.66
2023-03-23T18:25:20.410Z,99698.44
2023-03-23T18:27:48.129Z,99704.38
2023-03-23T18:30:17.188Z,99698.72
2023-03-23T18:32:45.309Z,99705.69
2023-03-23T18:35:13.725Z,99695.09
2023-03-23T18:37:43.005Z,99674.56
2023-03-23T18:40:17.520Z,99686.47
2023-03-23T18:42:45.878Z,99687.78
2023-03-23T18:45:14.573Z,99689.28
2023-03-23T18:47:43.985Z,99685.47
2023-03-23T18:50:12.473Z,99675.69
2023-03-23T18:52:40.332Z,99674.88
2023-03-23T18:55:09.247Z,99662.59
2023-03-23T18:57:37.005Z,99666.41
2023-03-23T19:00:05.381Z,99660.44
2023-03-23T19:02:33.475Z,99651.84
2023-03-23T19:05:02.686Z,99650.69
2023-03-23T19:07:31.487Z,99648.03
2023-03-23T19:09:59.355Z,99650.34
2023-03-23T19:12:27.162Z,99650.50
2023-03-23T19:14:54.958Z,99640.75
2023-03-23T19:17:24.623Z,99641.72
2023-03-23T19:19:52.726Z,99641.94
2023-03-23T19:22:21.835Z,99644.06
2023-03-23T19:24:49.633Z,99641.09
2023-03-23T19:27:21.017Z,99638.78
2023-03-23T19:29:48.997Z,99634.97
2023-03-23T19:32:17.092Z,99635.44
2023-03-23T19:34:50.907Z,99642.41
2023-03-23T19:37:19.244Z,99634.59
2023-03-23T19:39:48.676Z,99640.41
2023-03-23T19:42:20.432Z,99633.28
2023-03-23T19:44:48.974Z,99635.28
2023-03-23T19:47:16.928Z,99633.13
2023-03-23T19:49:44.698Z,99598.69
2023-03-23T19:52:14.438Z,99610.06
2023-03-23T19:54:43.424Z,99617.19
2023-03-23T19:57:15.589Z,99617.69
2023-03-23T19:59:44.313Z,99619.69
2023-03-23T20:02:13.018Z,99625.81
2023-03-23T20:04:41.896Z,99618.19
2023-03-23T20:07:10.242Z,99612.22
2023-03-23T20:09:38.601Z,99614.22
2023-03-23T20:12:07.032Z,99607.59
2023-03-23T20:14:38.049Z,99608.25
2023-03-23T20:17:09.701Z,99606.59
2023-03-23T20:19:38.136Z,99597.81
2023-03-23T20:22:06.070Z,99604.78
2023-03-23T20:24:33.907Z,99606.59
2023-03-23T20:27:03.764Z,99605.94
2023-03-23T20:29:33.607Z,99589.38
2023-03-23T20:32:03.169Z,99593.50
2023-03-23T20:34:31.527Z,99589.03
2023-03-23T20:37:01.869Z,99575.13
2023-03-23T20:39:31.791Z,99519.78
2023-03-23T20:42:03.313Z,99570.31
2023-03-23T20:44:34.753Z,99542.09
2023-03-23T20:47:04.699Z,99576.44
2023-03-23T20:49:33.265Z,99571.47
2023-03-23T20:52:01.635Z,99565.69
2023-03-23T20:54:29.818Z,99557.56
2023-03-23T20:56:58.511Z,99550.25
2023-03-23T20:59:26.636Z,99548.59
2023-03-23T21:01:54.556Z,99540.66
2023-03-23T21:04:27.345Z,99548.25
2023-03-23T21:06:55.701Z,99545.78
2023-03-23T21:09:24.704Z,99550.25
2023-03-23T21:11:52.533Z,99549.25
2023-03-23T21:14:20.353Z,99547.59
2023-03-23T21:16:48.182Z,99536.50
2023-03-23T21:19:15.890Z,99545.78
2023-03-23T21:21:56.766Z,99548.91
2023-03-23T21:24:27.989Z,99530.94
2023-03-23T21:26:57.197Z,99536.84
2023-03-23T21:29:24.999Z,99545.09
2023-03-23T21:32:06.981Z,99536.16
2023-03-23T21:34:36.128Z,99539.81
2023-03-23T21:37:05.277Z,99538.97
2023-03-23T21:39:33.604Z,99537.66
2023-03-23T21:42:02.761Z,99521.81
2023-03-23T21:44:30.436Z,99535.66
2023-03-23T21:46:58.148Z,99517.50
2023-03-23T21:49:25.856Z,99530.69
2023-03-23T21:51:53.675Z,99535.19
2023-03-23T21:54:22.785Z,99526.13
2023-03-23T21:56:51.019Z,99532.69
2023-03-23T21:59:18.841Z,99531.03
2023-03-23T22:01:47.957Z,99531.03
2023-03-23T22:04:17.029Z,99528.75
2023-03-23T22:06:45.073Z,99531.22
2023-03-23T22:09:13.190Z,99531.03
2023-03-23T22:11:42.540Z,99517.97
2023-03-23T22:14:10.491Z,99498.97
2023-03-23T22:16:38.475Z,99517.34
2023-03-23T22:19:06.635Z,99513.47
2023-03-23T22:21:34.561Z,99516.13
2023-03-23T22:24:02.920Z,99519.16
2023-03-23T22:26:31.209Z,99481.63
2023-03-23T22:29:01.720Z,99508.91
2023-03-23T22:31:32.439Z,99504.75
2023-03-23T22:34:02.184Z,99510.22
2023-03-23T22:36:31.065Z,99506.91
2023-03-23T22:38:58.928Z,99504.97
2023-03-23T22:41:28.581Z,99493.06
2023-03-23T22:43:56.902Z,99480.22
2023-03-23T22:46:26.568Z,99473.25
2023-03-23T22:48:54.479Z,99485.94
2023-03-23T22:51:23.890Z,99488.16
2023-03-23T22:53:51.924Z,99474.25
2023-03-23T22:56:21.381Z,99468.94
2023-03-23T22:58:49.673Z,99464.16
2023-03-23T23:01:21.629Z,99460.38
2023-03-23T23:03:51.218Z,99465.03
2023-03-23T23:06:20.252Z,99442.38
2023-03-23T23:08:48.918Z,99421.06
2023-03-23T23:11:19.478Z,99445.66
2023-03-23T23:13:47.716Z,99448.13
2023-03-23T23:16:17.889Z,99440.16
2023-03-23T23:18:47.461Z,99436.88
2023-03-23T23:21:19.146Z,99441.19
2023-03-23T23:23:47.776Z,99432.22
2023-03-23T23:26:17.163Z,99436.88
2023-03-23T23:28:46.037Z,99427.28
2023-03-23T23:31:22.694Z,99426.13
2023-03-23T23:33:51.109Z,99419.19
2023-03-23T23:36:21.178Z,99422.00
2023-03-23T23:38:49.869Z,99399.00
2023-03-23T23:41:17.904Z,99398.50
2023-03-23T23:43:46.005Z,99406.09
2023-03-23T23:46:13.960Z,99391.22
2023-03-23T23:48:42.617Z,99383.13
2023-03-23T23:51:10.968Z,99395.34
2023-03-23T23:53:42.450Z,99391.22
2023-03-23T23:56:12.081Z,99383.25
2023-03-23T23:58:40.522Z,99386.56
